Portada
METAR-TAF:

METAR-TAF

Aeropuertos :

Aeropuerto Internacional de Lusaka

Lusaka, Zambia

latitud: 15-19-51S, longitud: 028-27-09E, altitud: 1152 m

Observación

El informe se hizo hace 9 horas y 46 minutos, a las 06:00 UTC
Viento 11 kt del este
Temperatura 24°C
Humedad 54%
Presión 1021 hPa
Visibilidad 10 km o más
sin nubes por debajo de 1500 m y sin presencia de cumulonimbus.

METAR: FLKK 200600Z 08011KT CAVOK 24/14 Q1021

Hora: 17:46 (15:46 UTC)


TAF: falta

Observaciones y pronósticos meteorológicos de más de 4000 aeropuertos (mensajes METAR y TAF).

Los puntos amarillos y rojos representan las estaciones disponibles.

Ponga el ratón en el punto deseado para ver el nombre de la estación.

Haga clic para ver las observaciones y los pronósticos meteorológicos.

Para cambiar el mapa : haga clic en los botones verdes con una cruz de color negro para hacer un zoom, en el botón verde con un guión para alejar o en las flechas verdes para mapas adyacentes.


METAR-TAF: